createdAt,value
2018-10-16T00:00:04.215Z,6.50
2018-10-16T00:01:04.201Z,7.10
2018-10-16T00:02:04.199Z,7.20
2018-10-16T00:03:04.226Z,6.50
2018-10-16T00:04:04.187Z,7.10
2018-10-16T00:05:04.186Z,6.60
2018-10-16T00:06:04.181Z,7.00
2018-10-16T00:07:04.171Z,7.10
2018-10-16T00:08:04.167Z,6.40
2018-10-16T00:09:04.166Z,7.00
2018-10-16T00:10:04.160Z,6.60
2018-10-16T00:11:04.157Z,7.10
2018-10-16T00:12:04.158Z,7.00
2018-10-16T00:13:04.140Z,6.80
2018-10-16T00:14:04.136Z,7.00
2018-10-16T00:15:04.131Z,6.60
2018-10-16T00:16:04.125Z,6.90
2018-10-16T00:17:04.123Z,6.70
2018-10-16T00:18:04.119Z,6.70
2018-10-16T00:19:04.115Z,6.90
2018-10-16T00:20:04.112Z,6.80
2018-10-16T00:21:04.098Z,6.80
2018-10-16T00:22:04.097Z,7.50
2018-10-16T00:23:04.096Z,6.90
2018-10-16T00:24:04.089Z,7.00
2018-10-16T00:25:04.079Z,7.10
2018-10-16T00:26:04.123Z,6.70
2018-10-16T00:27:04.068Z,6.80
2018-10-16T00:28:04.062Z,6.90
2018-10-16T00:29:04.063Z,7.10
2018-10-16T00:30:04.057Z,7.00
2018-10-16T00:31:04.056Z,6.90
2018-10-16T00:32:04.047Z,7.20
2018-10-16T00:33:04.037Z,7.30
2018-10-16T00:34:04.031Z,7.10
2018-10-16T00:35:04.030Z,7.20
2018-10-16T00:36:04.021Z,7.00
2018-10-16T00:37:04.029Z,6.90
2018-10-16T00:38:04.015Z,6.90
2018-10-16T00:39:04.006Z,6.80
2018-10-16T00:40:03.999Z,6.80
2018-10-16T00:41:04.000Z,6.90
2018-10-16T00:42:03.995Z,6.70
2018-10-16T00:43:03.988Z,6.80
2018-10-16T00:44:03.982Z,6.50
2018-10-16T00:45:03.973Z,7.20
2018-10-16T00:46:03.969Z,7.10
2018-10-16T00:47:03.967Z,7.30
2018-10-16T00:48:03.960Z,7.50
2018-10-16T00:49:03.957Z,7.10
2018-10-16T00:50:03.950Z,7.10
2018-10-16T00:51:03.947Z,6.50
2018-10-16T00:52:03.940Z,7.10
2018-10-16T00:53:03.931Z,7.30
2018-10-16T00:54:03.929Z,6.90
2018-10-16T00:55:04.091Z,7.30
2018-10-16T00:56:03.919Z,7.40
2018-10-16T00:57:03.908Z,7.20
2018-10-16T00:58:03.904Z,7.60
2018-10-16T00:59:03.899Z,7.60
2018-10-16T01:00:03.892Z,7.30
2018-10-16T01:01:03.894Z,7.00
2018-10-16T01:02:03.892Z,7.30
2018-10-16T01:03:03.881Z,6.40
2018-10-16T01:04:03.875Z,6.60
2018-10-16T01:05:03.867Z,7.00
2018-10-16T01:06:03.859Z,7.30
2018-10-16T01:07:03.855Z,7.10
2018-10-16T01:08:03.849Z,7.10
2018-10-16T01:09:03.849Z,7.60
2018-10-16T01:10:03.842Z,7.00
2018-10-16T01:11:03.833Z,7.60
2018-10-16T01:12:03.832Z,7.30
2018-10-16T01:13:03.831Z,7.60
2018-10-16T01:14:03.822Z,7.20
2018-10-16T01:15:03.815Z,7.60
2018-10-16T01:16:03.812Z,7.20
2018-10-16T01:17:03.801Z,7.50
2018-10-16T01:18:03.796Z,6.90
2018-10-16T01:19:03.795Z,7.50
2018-10-16T01:20:03.786Z,6.60
2018-10-16T01:21:03.781Z,7.80
2018-10-16T01:22:03.777Z,7.10
2018-10-16T01:23:03.775Z,6.80
2018-10-16T01:24:03.765Z,7.00
2018-10-16T01:25:03.761Z,7.10
2018-10-16T01:26:03.751Z,7.30
2018-10-16T01:27:03.750Z,7.30
2018-10-16T01:28:03.762Z,7.50
2018-10-16T01:29:03.734Z,7.00
2018-10-16T01:30:03.727Z,7.60
2018-10-16T01:31:03.722Z,7.30
2018-10-16T01:32:03.716Z,6.80
2018-10-16T01:33:03.715Z,7.60
2018-10-16T01:34:03.710Z,7.40
2018-10-16T01:35:03.705Z,7.20
2018-10-16T01:36:03.698Z,7.10
2018-10-16T01:37:03.691Z,7.30
2018-10-16T01:38:03.695Z,7.70
2018-10-16T01:39:03.678Z,7.60
2018-10-16T01:40:03.674Z,7.90
2018-10-16T01:41:03.671Z,7.50
2018-10-16T01:42:03.666Z,7.90
2018-10-16T01:43:03.656Z,6.90
2018-10-16T01:44:03.650Z,7.30
2018-10-16T01:45:03.653Z,7.10
2018-10-16T01:46:03.645Z,7.40
2018-10-16T01:47:03.639Z,7.40
2018-10-16T01:48:03.634Z,7.40
2018-10-16T01:49:03.624Z,7.30
2018-10-16T01:50:03.618Z,7.90
2018-10-16T01:51:03.612Z,7.30
2018-10-16T01:52:03.606Z,6.90
2018-10-16T01:53:03.605Z,6.60
2018-10-16T01:54:03.604Z,7.40
2018-10-16T01:55:03.595Z,7.00
2018-10-16T01:56:03.590Z,7.20
2018-10-16T01:57:03.579Z,7.90
2018-10-16T01:58:03.574Z,7.50
2018-10-16T01:59:03.575Z,7.10
2018-10-16T02:00:03.568Z,7.40
2018-10-16T02:01:03.559Z,7.00
2018-10-16T02:02:03.553Z,7.40
2018-10-16T02:03:03.547Z,6.90
2018-10-16T02:04:03.543Z,7.30
2018-10-16T02:05:03.541Z,7.20
2018-10-16T02:06:03.536Z,7.20
2018-10-16T02:07:03.532Z,7.50
2018-10-16T02:08:03.526Z,7.00
2018-10-16T02:09:03.516Z,7.60
2018-10-16T02:10:03.511Z,7.60
2018-10-16T02:11:03.505Z,7.50
2018-10-16T02:12:03.500Z,7.80
2018-10-16T02:13:03.501Z,7.70
2018-10-16T02:14:03.494Z,7.60
2018-10-16T02:15:03.484Z,7.60
2018-10-16T02:16:03.477Z,7.70
2018-10-16T02:17:03.479Z,7.90
2018-10-16T02:18:03.472Z,7.50
2018-10-16T02:19:03.466Z,7.70
2018-10-16T02:20:03.460Z,7.30
2018-10-16T02:21:03.452Z,7.70
2018-10-16T02:22:03.446Z,8.30
2018-10-16T02:23:03.441Z,8.10
2018-10-16T02:24:03.437Z,7.40
2018-10-16T02:25:03.435Z,7.20
2018-10-16T02:26:03.431Z,7.30
2018-10-16T02:27:03.426Z,7.90
2018-10-16T02:28:03.417Z,7.30
2018-10-16T02:29:03.408Z,7.70
2018-10-16T02:30:03.405Z,7.20
2018-10-16T02:31:03.405Z,7.50
2018-10-16T02:32:03.395Z,8.00
2018-10-16T02:33:03.389Z,7.60
2018-10-16T02:34:03.382Z,7.50
2018-10-16T02:35:03.376Z,7.70
2018-10-16T02:36:03.370Z,7.70
2018-10-16T02:37:03.370Z,7.80
2018-10-16T02:38:03.364Z,7.80
2018-10-16T02:39:03.360Z,7.90
2018-10-16T02:40:03.353Z,7.80
2018-10-16T02:41:03.343Z,8.20
2018-10-16T02:42:03.337Z,7.70
2018-10-16T02:43:03.332Z,7.90
2018-10-16T02:44:03.326Z,7.60
2018-10-16T02:45:03.325Z,7.50
2018-10-16T02:46:03.320Z,7.60
2018-10-16T02:47:03.311Z,7.60
2018-10-16T02:48:03.304Z,8.10
2018-10-16T02:49:03.304Z,7.20
2018-10-16T02:50:03.300Z,7.80
2018-10-16T02:51:03.294Z,7.60
2018-10-16T02:52:03.289Z,7.30
2018-10-16T02:53:03.278Z,7.90
2018-10-16T02:54:03.272Z,7.60
2018-10-16T02:55:03.267Z,7.80
2018-10-16T02:56:03.262Z,8.10
2018-10-16T02:57:03.260Z,7.50
2018-10-16T02:58:03.256Z,7.70
2018-10-16T02:59:03.249Z,7.50
2018-10-16T03:00:03.243Z,7.50
2018-10-16T03:01:03.235Z,8.30
2018-10-16T03:02:03.228Z,7.50
2018-10-16T03:03:03.227Z,7.70
2018-10-16T03:04:03.221Z,7.70
2018-10-16T03:05:03.211Z,8.40
2018-10-16T03:06:03.208Z,8.00
2018-10-16T03:07:03.201Z,8.10
2018-10-16T03:08:03.196Z,7.90
2018-10-16T03:09:03.196Z,8.20
2018-10-16T03:10:03.191Z,8.20
2018-10-16T03:11:03.188Z,8.20
2018-10-16T03:12:03.178Z,7.80
2018-10-16T03:13:03.168Z,7.90
2018-10-16T03:14:03.163Z,7.70
2018-10-16T03:15:03.158Z,7.10
2018-10-16T03:16:03.152Z,8.00
2018-10-16T03:17:03.152Z,7.80
2018-10-16T03:18:03.150Z,8.20
2018-10-16T03:19:03.136Z,7.90
2018-10-16T03:20:03.134Z,8.10
2018-10-16T03:21:03.129Z,8.20
2018-10-16T03:22:03.123Z,8.10
2018-10-16T03:23:03.120Z,7.70
2018-10-16T03:24:03.112Z,7.90
2018-10-16T03:25:03.103Z,7.70
2018-10-16T03:26:03.100Z,8.10
2018-10-16T03:27:03.094Z,8.00
2018-10-16T03:28:03.089Z,7.90
2018-10-16T03:29:03.087Z,7.30
2018-10-16T03:30:03.088Z,7.40
2018-10-16T03:31:03.076Z,7.80
2018-10-16T03:32:03.071Z,7.40
2018-10-16T03:33:03.060Z,7.70
2018-10-16T03:34:03.056Z,7.90
2018-10-16T03:35:03.055Z,8.10
2018-10-16T03:36:03.049Z,7.60
2018-10-16T03:37:03.039Z,7.90
2018-10-16T03:38:03.034Z,7.90
2018-10-16T03:39:03.028Z,7.50
2018-10-16T03:40:03.022Z,7.70
2018-10-16T03:41:03.021Z,7.70
2018-10-16T03:42:03.017Z,7.90
2018-10-16T03:43:03.011Z,7.90
2018-10-16T03:44:03.006Z,8.20
2018-10-16T03:45:02.996Z,8.20
2018-10-16T03:46:02.994Z,8.20
2018-10-16T03:47:02.992Z,8.00
2018-10-16T03:48:02.981Z,7.70
2018-10-16T03:49:02.980Z,8.20
2018-10-16T03:50:02.975Z,7.80
2018-10-16T03:51:02.966Z,7.90
2018-10-16T03:52:02.959Z,8.50
2018-10-16T03:53:02.959Z,7.20
2018-10-16T03:54:02.954Z,8.10
2018-10-16T03:55:02.948Z,8.40
2018-10-16T03:56:02.942Z,7.80
2018-10-16T03:57:02.933Z,7.80
2018-10-16T03:58:02.933Z,7.40
2018-10-16T03:59:02.923Z,7.70
2018-10-16T04:00:02.917Z,7.90
2018-10-16T04:01:02.917Z,8.20
2018-10-16T04:02:02.912Z,7.20
2018-10-16T04:03:02.906Z,7.60
2018-10-16T04:04:02.905Z,7.70
2018-10-16T04:05:02.891Z,7.50
2018-10-16T04:06:02.886Z,8.10
2018-10-16T04:07:02.887Z,8.00
2018-10-16T04:08:02.880Z,8.10
2018-10-16T04:09:02.873Z,8.10
2018-10-16T04:10:02.866Z,8.30
2018-10-16T04:11:02.862Z,8.60
2018-10-16T04:12:02.854Z,7.40
2018-10-16T04:13:02.854Z,8.00
2018-10-16T04:14:02.942Z,7.60
2018-10-16T04:15:02.845Z,7.70
2018-10-16T04:16:02.839Z,8.00
2018-10-16T04:17:02.832Z,8.10
2018-10-16T04:18:02.828Z,8.70
2018-10-16T04:19:02.820Z,7.80
2018-10-16T04:20:02.814Z,8.00
2018-10-16T04:21:02.815Z,7.90
2018-10-16T04:22:02.811Z,8.20
2018-10-16T04:23:02.881Z,8.40
2018-10-16T04:24:02.794Z,8.80
2018-10-16T04:25:02.795Z,8.50
2018-10-16T04:26:02.793Z,8.80
2018-10-16T04:27:02.783Z,8.30
2018-10-16T04:28:02.778Z,8.60
2018-10-16T04:29:02.791Z,8.30
2018-10-16T04:30:02.764Z,8.60
2018-10-16T04:31:02.759Z,8.90
2018-10-16T04:32:02.753Z,9.50
2018-10-16T04:33:02.754Z,8.40
2018-10-16T04:34:02.749Z,8.40
2018-10-16T04:35:02.743Z,8.90
2018-10-16T04:36:02.738Z,8.50
2018-10-16T04:37:02.728Z,8.60
2018-10-16T04:38:02.723Z,7.80
2018-10-16T04:39:02.723Z,8.50
2018-10-16T04:40:02.718Z,8.30
2018-10-16T04:41:02.709Z,8.90
2018-10-16T04:42:02.703Z,8.10
2018-10-16T04:43:02.705Z,8.30
2018-10-16T04:44:02.693Z,8.00
2018-10-16T04:45:02.697Z,8.60
2018-10-16T04:46:02.691Z,8.00
2018-10-16T04:47:02.684Z,7.70
2018-10-16T04:48:02.679Z,8.20
2018-10-16T04:49:02.672Z,8.10
2018-10-16T04:50:02.665Z,8.40
2018-10-16T04:51:02.665Z,8.30
2018-10-16T04:52:02.653Z,8.60
2018-10-16T04:53:02.652Z,7.80
2018-10-16T04:54:02.650Z,8.10
2018-10-16T04:55:02.676Z,7.90
2018-10-16T04:56:02.633Z,8.50
2018-10-16T04:57:02.632Z,8.20
2018-10-16T04:58:02.628Z,7.90
2018-10-16T04:59:02.625Z,8.10
2018-10-16T05:00:02.618Z,7.80
2018-10-16T05:01:02.608Z,8.50
2018-10-16T05:02:02.605Z,8.10
2018-10-16T05:03:02.598Z,8.00
2018-10-16T05:04:02.653Z,8.10
2018-10-16T05:05:02.594Z,7.60
2018-10-16T05:06:02.590Z,8.40
2018-10-16T05:07:02.582Z,8.30
2018-10-16T05:08:02.577Z,8.50
2018-10-16T05:09:02.572Z,8.10
2018-10-16T05:10:02.563Z,7.80
2018-10-16T05:11:02.562Z,8.30
2018-10-16T05:12:02.557Z,8.10
2018-10-16T05:13:02.576Z,8.20
2018-10-16T05:14:02.543Z,8.50
2018-10-16T05:15:02.538Z,8.30
2018-10-16T05:16:02.536Z,8.60
2018-10-16T05:17:02.532Z,8.70
2018-10-16T05:18:02.531Z,8.30
2018-10-16T05:19:02.538Z,8.10
2018-10-16T05:20:02.515Z,8.30
2018-10-16T05:21:02.506Z,7.70
2018-10-16T05:22:02.504Z,8.70
2018-10-16T05:23:02.495Z,8.50
2018-10-16T05:24:02.495Z,8.40
2018-10-16T05:25:02.488Z,8.70
2018-10-16T05:26:02.485Z,7.80
2018-10-16T05:27:02.474Z,8.60
2018-10-16T05:28:02.469Z,8.40
2018-10-16T05:29:02.468Z,8.40
2018-10-16T05:30:02.462Z,8.60
2018-10-16T05:31:02.519Z,8.50
2018-10-16T05:32:02.456Z,8.20
2018-10-16T05:33:02.444Z,8.60
2018-10-16T05:34:02.437Z,8.20
2018-10-16T05:35:02.432Z,8.10
2018-10-16T05:36:02.425Z,8.70
2018-10-16T05:37:02.426Z,8.50
2018-10-16T05:38:02.419Z,9.10
2018-10-16T05:39:02.437Z,8.10
2018-10-16T05:40:02.410Z,8.30
2018-10-16T05:41:02.404Z,8.10
2018-10-16T05:42:02.396Z,8.50
2018-10-16T05:43:02.396Z,8.20
2018-10-16T05:44:02.389Z,8.10
2018-10-16T05:45:02.380Z,8.50
2018-10-16T05:46:02.375Z,8.30
2018-10-16T05:47:02.369Z,9.00
2018-10-16T05:48:02.363Z,8.30
2018-10-16T05:49:02.365Z,8.60
2018-10-16T05:50:02.358Z,8.70
2018-10-16T05:51:02.351Z,8.20
2018-10-16T05:52:02.346Z,8.30
2018-10-16T05:53:02.336Z,8.10
2018-10-16T05:54:02.331Z,8.20
2018-10-16T05:55:02.328Z,7.80
2018-10-16T05:56:02.321Z,8.80
2018-10-16T05:57:02.323Z,7.60
2018-10-16T05:58:02.316Z,8.60
2018-10-16T05:59:02.307Z,8.30
2018-10-16T06:00:02.301Z,8.00
2018-10-16T06:01:02.301Z,8.50
2018-10-16T06:02:02.295Z,7.70
2018-10-16T06:03:02.288Z,8.20
2018-10-16T06:04:02.282Z,8.00
2018-10-16T06:05:02.273Z,8.60
2018-10-16T06:06:02.268Z,8.20
2018-10-16T06:07:02.264Z,8.00
2018-10-16T06:08:02.258Z,8.10
2018-10-16T06:09:02.260Z,8.50
2018-10-16T06:10:02.253Z,8.40
2018-10-16T06:11:02.247Z,8.40
2018-10-16T06:12:02.260Z,8.60
2018-10-16T06:13:02.232Z,8.00
2018-10-16T06:14:02.234Z,8.30
2018-10-16T06:15:02.225Z,8.20
2018-10-16T06:16:02.288Z,8.40
2018-10-16T06:17:02.211Z,8.40
2018-10-16T06:18:02.205Z,8.40
2018-10-16T06:19:02.200Z,8.00
2018-10-16T06:20:02.194Z,8.20
2018-10-16T06:21:02.194Z,8.10
2018-10-16T06:22:02.188Z,8.50
2018-10-16T06:23:02.184Z,8.50
2018-10-16T06:24:02.178Z,9.20
2018-10-16T06:25:02.170Z,8.50
2018-10-16T06:26:02.163Z,9.00
2018-10-16T06:27:02.158Z,8.90
2018-10-16T06:28:02.157Z,8.30
2018-10-16T06:29:02.154Z,9.10
2018-10-16T06:30:02.212Z,8.70
2018-10-16T06:31:02.139Z,8.80
2018-10-16T06:32:02.132Z,9.00
2018-10-16T06:33:02.134Z,9.20
2018-10-16T06:34:02.129Z,8.70
2018-10-16T06:35:02.121Z,8.90
2018-10-16T06:36:02.115Z,9.40
2018-10-16T06:37:02.109Z,9.00
2018-10-16T06:38:02.101Z,8.20
2018-10-16T06:39:02.099Z,8.40
2018-10-16T06:40:02.091Z,8.80
2018-10-16T06:41:02.301Z,9.10
2018-10-16T06:42:02.088Z,9.10
2018-10-16T06:43:02.083Z,8.80
2018-10-16T06:44:02.146Z,8.60
2018-10-16T06:45:02.066Z,8.80
2018-10-16T06:46:02.064Z,8.60
2018-10-16T06:47:02.061Z,8.70
2018-10-16T06:48:02.250Z,8.50
2018-10-16T06:49:02.045Z,8.50
2018-10-16T06:50:02.046Z,9.00
2018-10-16T06:51:02.037Z,8.60
2018-10-16T06:52:02.032Z,9.30
2018-10-16T06:53:02.050Z,9.30
2018-10-16T06:54:02.026Z,8.60
2018-10-16T06:55:02.072Z,9.10
2018-10-16T06:56:02.016Z,8.40
2018-10-16T06:57:02.006Z,8.90
2018-10-16T06:58:02.002Z,9.10
2018-10-16T06:59:01.997Z,9.50
2018-10-16T07:00:02.083Z,9.20
2018-10-16T07:01:02.013Z,8.30
2018-10-16T07:02:01.986Z,8.60
2018-10-16T07:03:01.982Z,8.00
2018-10-16T07:04:01.972Z,8.90
2018-10-16T07:05:01.974Z,8.90
2018-10-16T07:06:01.968Z,8.90
2018-10-16T07:07:02.147Z,8.10
2018-10-16T07:08:01.959Z,9.10
2018-10-16T07:09:01.952Z,8.60
2018-10-16T07:10:01.944Z,8.50
2018-10-16T07:11:01.941Z,8.90
2018-10-16T07:12:01.936Z,8.30
2018-10-16T07:13:01.936Z,9.10
2018-10-16T07:14:01.935Z,8.60
2018-10-16T07:15:01.969Z,8.70
2018-10-16T07:16:01.923Z,8.70
2018-10-16T07:17:01.914Z,8.70
2018-10-16T07:18:01.911Z,8.40
2018-10-16T07:19:01.911Z,8.00
2018-10-16T07:20:01.906Z,8.70
2018-10-16T07:21:01.909Z,8.40
2018-10-16T07:22:01.896Z,8.40
2018-10-16T07:23:01.894Z,8.20
2018-10-16T07:24:01.949Z,8.10
2018-10-16T07:25:01.892Z,7.80
2018-10-16T07:26:01.885Z,8.50
2018-10-16T07:27:01.883Z,8.00
2018-10-16T07:28:01.877Z,8.00
2018-10-16T07:29:01.900Z,8.00
2018-10-16T07:30:01.947Z,7.80
2018-10-16T07:31:01.866Z,8.00
2018-10-16T07:32:01.858Z,8.00
2018-10-16T07:33:01.863Z,7.70
2018-10-16T07:34:01.859Z,8.00
2018-10-16T07:35:01.852Z,8.20
2018-10-16T07:36:01.867Z,7.90
2018-10-16T07:37:01.855Z,7.80
2018-10-16T07:38:02.046Z,7.90
2018-10-16T07:39:02.009Z,8.60
2018-10-16T07:40:01.850Z,7.60
2018-10-16T07:41:01.847Z,7.50
2018-10-16T07:42:01.844Z,8.40
2018-10-16T07:43:01.844Z,7.90
2018-10-16T07:44:01.844Z,8.30
2018-10-16T07:45:01.852Z,7.80
2018-10-16T07:46:01.851Z,7.30
2018-10-16T07:47:01.852Z,8.10
2018-10-16T07:48:01.853Z,7.30
2018-10-16T07:49:01.850Z,7.80
2018-10-16T07:50:01.852Z,8.30
2018-10-16T07:51:01.860Z,8.10
2018-10-16T07:52:01.860Z,7.50
2018-10-16T07:53:01.859Z,8.00
2018-10-16T07:54:01.864Z,7.70
2018-10-16T07:55:01.869Z,7.90
2018-10-16T07:56:01.870Z,8.00
2018-10-16T07:57:01.881Z,8.20
2018-10-16T07:58:01.879Z,8.10
2018-10-16T07:59:01.882Z,7.30
2018-10-16T08:00:01.886Z,8.00
2018-10-16T08:01:01.885Z,7.70
2018-10-16T08:02:01.891Z,7.90
2018-10-16T08:03:01.896Z,8.50
2018-10-16T08:04:01.897Z,8.10
2018-10-16T08:05:01.913Z,7.60
2018-10-16T08:06:01.909Z,7.00
2018-10-16T08:07:01.908Z,7.50
2018-10-16T08:08:01.913Z,7.60
2018-10-16T08:09:01.921Z,7.70
2018-10-16T08:10:01.926Z,7.70
2018-10-16T08:11:01.929Z,7.50
2018-10-16T08:12:01.937Z,7.30
2018-10-16T08:13:01.936Z,7.00
2018-10-16T08:14:01.944Z,7.20
2018-10-16T08:15:01.947Z,7.30
2018-10-16T08:16:01.951Z,6.70
2018-10-16T08:17:02.006Z,7.00
2018-10-16T08:18:01.968Z,6.40
2018-10-16T08:19:01.975Z,6.70
2018-10-16T08:20:01.982Z,6.30
2018-10-16T08:21:01.983Z,6.30
2018-10-16T08:22:01.990Z,6.40
2018-10-16T08:23:02.001Z,6.70
2018-10-16T08:24:02.009Z,6.40
2018-10-16T08:25:02.013Z,6.30
2018-10-16T08:26:02.017Z,6.30
2018-10-16T08:27:02.023Z,6.30
2018-10-16T08:28:02.030Z,6.30
2018-10-16T08:29:02.039Z,5.80
2018-10-16T08:30:02.228Z,6.20
2018-10-16T08:31:02.053Z,6.10
2018-10-16T08:32:02.069Z,6.10
2018-10-16T08:33:02.064Z,6.20
2018-10-16T08:34:02.099Z,6.30
2018-10-16T08:35:02.079Z,6.00
2018-10-16T08:36:02.177Z,6.40
2018-10-16T08:37:02.122Z,6.30
2018-10-16T08:38:02.131Z,6.10
2018-10-16T08:39:02.111Z,6.30
2018-10-16T08:40:02.118Z,6.30
2018-10-16T08:41:02.131Z,6.50
2018-10-16T08:42:02.260Z,6.20
2018-10-16T08:43:02.149Z,5.90
2018-10-16T08:44:02.158Z,6.50
2018-10-16T08:45:02.285Z,6.30
2018-10-16T08:46:02.248Z,6.30
2018-10-16T08:47:02.187Z,6.20
2018-10-16T08:48:02.189Z,6.00
2018-10-16T08:49:02.203Z,6.40
2018-10-16T08:50:02.214Z,6.60
2018-10-16T08:51:02.224Z,6.80
2018-10-16T08:52:02.233Z,6.30
2018-10-16T08:53:02.238Z,6.20
2018-10-16T08:54:02.250Z,6.10
2018-10-16T08:55:02.355Z,6.20
2018-10-16T08:56:02.271Z,6.60
2018-10-16T08:57:02.278Z,6.60
2018-10-16T08:58:02.288Z,6.60
2018-10-16T08:59:02.299Z,6.70
2018-10-16T09:00:02.308Z,6.30
2018-10-16T09:01:02.325Z,7.50
2018-10-16T09:02:02.335Z,6.70
2018-10-16T09:03:02.347Z,7.00
2018-10-16T09:04:02.356Z,6.80
2018-10-16T09:05:02.412Z,7.10
2018-10-16T09:06:02.372Z,7.20
2018-10-16T09:07:02.384Z,6.60
2018-10-16T09:08:02.393Z,7.30
2018-10-16T09:09:02.421Z,6.80
2018-10-16T09:10:02.422Z,6.30
2018-10-16T09:11:02.428Z,6.90
2018-10-16T09:12:02.442Z,6.90
2018-10-16T09:13:02.488Z,7.00
2018-10-16T09:14:02.540Z,7.30
2018-10-16T09:15:02.478Z,6.70
2018-10-16T09:16:02.489Z,6.80
2018-10-16T09:17:02.496Z,6.70
2018-10-16T09:18:02.508Z,7.40
2018-10-16T09:19:02.524Z,7.10
2018-10-16T09:20:02.529Z,6.70
2018-10-16T09:21:02.546Z,6.90
2018-10-16T09:22:02.558Z,6.90
2018-10-16T09:23:02.568Z,7.40
2018-10-16T09:24:02.580Z,7.40
2018-10-16T09:25:02.618Z,7.50
2018-10-16T09:26:02.603Z,7.60
2018-10-16T09:27:02.615Z,7.30
2018-10-16T09:28:02.626Z,7.50
2018-10-16T09:29:02.634Z,7.60
2018-10-16T09:30:02.651Z,7.30
2018-10-16T09:31:02.720Z,7.20
2018-10-16T09:32:02.669Z,6.60
2018-10-16T09:33:02.686Z,6.30
2018-10-16T09:34:02.699Z,7.10
2018-10-16T09:35:02.709Z,7.00
2018-10-16T09:36:02.721Z,6.90
2018-10-16T09:37:02.727Z,7.50
2018-10-16T09:38:02.854Z,7.30
2018-10-16T09:39:02.752Z,7.40
2018-10-16T09:40:02.762Z,7.20
2018-10-16T09:41:02.779Z,6.90
2018-10-16T09:42:02.791Z,7.20
2018-10-16T09:43:02.800Z,7.20
2018-10-16T09:44:02.810Z,7.20
2018-10-16T09:45:02.827Z,7.00
2018-10-16T09:46:02.839Z,6.60
2018-10-16T09:47:02.853Z,7.30
2018-10-16T09:48:02.864Z,7.70
2018-10-16T09:49:02.872Z,7.50
2018-10-16T09:50:02.886Z,7.20
2018-10-16T09:51:02.896Z,7.40
2018-10-16T09:52:02.908Z,7.00
2018-10-16T09:53:02.925Z,7.30
2018-10-16T09:54:02.937Z,7.10
2018-10-16T09:55:02.950Z,7.50
2018-10-16T09:56:02.961Z,7.00
2018-10-16T09:57:02.969Z,7.10
2018-10-16T09:58:02.982Z,7.00
2018-10-16T09:59:03.004Z,6.70
2018-10-16T10:00:03.011Z,6.90
2018-10-16T10:01:03.079Z,7.80
2018-10-16T10:02:03.032Z,6.80
2018-10-16T10:03:03.048Z,6.80
2018-10-16T10:04:03.057Z,7.40
2018-10-16T10:05:03.074Z,6.30
2018-10-16T10:06:03.085Z,6.70
2018-10-16T10:07:03.099Z,6.30
2018-10-16T10:08:03.113Z,6.90
2018-10-16T10:09:03.120Z,6.50
2018-10-16T10:10:03.141Z,6.20
2018-10-16T10:11:03.205Z,6.70
2018-10-16T10:12:03.156Z,6.50
2018-10-16T10:13:03.175Z,6.80
2018-10-16T10:14:03.187Z,6.00
2018-10-16T10:15:03.195Z,6.80
2018-10-16T10:16:03.208Z,6.20
2018-10-16T10:17:03.227Z,6.70
2018-10-16T10:18:03.238Z,6.70
2018-10-16T10:19:03.252Z,6.50
2018-10-16T10:20:03.263Z,6.50
2018-10-16T10:21:03.276Z,6.90
2018-10-16T10:22:03.286Z,6.40
2018-10-16T10:23:03.299Z,6.20
2018-10-16T10:24:03.310Z,6.00
2018-10-16T10:25:03.407Z,6.50
2018-10-16T10:26:03.343Z,6.40
2018-10-16T10:27:03.358Z,5.90
2018-10-16T10:28:03.368Z,6.30
2018-10-16T10:29:03.375Z,6.50
2018-10-16T10:30:03.390Z,6.10
2018-10-16T10:31:03.406Z,6.30
2018-10-16T10:32:03.419Z,6.50
2018-10-16T10:33:03.426Z,6.10
2018-10-16T10:34:03.439Z,6.50
2018-10-16T10:35:03.453Z,6.30
2018-10-16T10:36:03.465Z,6.40
2018-10-16T10:37:03.484Z,6.00
2018-10-16T10:38:03.498Z,6.00
2018-10-16T10:39:03.509Z,5.90
2018-10-16T10:40:03.524Z,5.70
2018-10-16T10:41:03.528Z,5.70
2018-10-16T10:42:03.547Z,5.80
2018-10-16T10:43:03.552Z,5.80
2018-10-16T10:44:03.565Z,5.80
2018-10-16T10:45:03.581Z,5.90
2018-10-16T10:46:03.593Z,6.30
2018-10-16T10:47:03.601Z,5.70
2018-10-16T10:48:03.613Z,5.90
2018-10-16T10:49:03.628Z,5.50
2018-10-16T10:50:03.849Z,6.10
2018-10-16T10:51:03.838Z,5.90
2018-10-16T10:52:03.664Z,5.40
2018-10-16T10:53:03.675Z,6.00
2018-10-16T10:54:03.683Z,6.00
2018-10-16T10:55:03.694Z,5.90
2018-10-16T10:56:03.706Z,5.60
2018-10-16T10:57:03.961Z,5.70
2018-10-16T10:58:03.733Z,5.40
2018-10-16T10:59:03.747Z,6.00
2018-10-16T11:00:03.758Z,5.70
2018-10-16T11:01:03.765Z,6.30
2018-10-16T11:02:03.781Z,6.30
2018-10-16T11:03:03.820Z,6.10
2018-10-16T11:04:03.806Z,5.50
2018-10-16T11:05:03.816Z,6.10
2018-10-16T11:06:03.831Z,5.70
2018-10-16T11:07:03.839Z,5.80
2018-10-16T11:08:03.852Z,5.60
2018-10-16T11:09:03.947Z,6.00
2018-10-16T11:10:03.881Z,5.70
2018-10-16T11:11:03.893Z,5.50
2018-10-16T11:12:03.905Z,5.10
2018-10-16T11:13:03.912Z,5.30
2018-10-16T11:14:03.924Z,5.80
2018-10-16T11:15:03.954Z,5.70
2018-10-16T11:16:03.947Z,5.60
2018-10-16T11:17:03.964Z,5.80
2018-10-16T11:18:03.975Z,6.10
2018-10-16T11:19:03.981Z,6.00
2018-10-16T11:20:03.992Z,6.10
2018-10-16T11:21:04.042Z,5.80
2018-10-16T11:22:04.016Z,5.80
2018-10-16T11:23:04.027Z,6.00
2018-10-16T11:24:04.036Z,5.60
2018-10-16T11:25:04.043Z,6.20
2018-10-16T11:26:04.047Z,5.30
2018-10-16T11:27:04.101Z,5.80
2018-10-16T11:28:04.062Z,5.60
2018-10-16T11:29:04.075Z,6.10
2018-10-16T11:30:04.087Z,5.80
2018-10-16T11:31:04.091Z,5.90
2018-10-16T11:32:04.097Z,5.70
2018-10-16T11:33:04.136Z,6.00
2018-10-16T11:34:04.106Z,5.60
2018-10-16T11:35:04.119Z,5.40
2018-10-16T11:36:04.123Z,5.90
2018-10-16T11:37:04.180Z,6.10
2018-10-16T11:38:04.132Z,5.40
2018-10-16T11:39:04.150Z,5.40
2018-10-16T11:40:04.143Z,5.60
2018-10-16T11:41:04.154Z,6.20
2018-10-16T11:42:04.162Z,5.80
2018-10-16T11:43:04.166Z,5.80
2018-10-16T11:44:04.170Z,6.20
2018-10-16T11:45:04.255Z,6.30
2018-10-16T11:46:04.178Z,5.80
2018-10-16T11:47:04.183Z,5.70
2018-10-16T11:48:04.188Z,5.40
2018-10-16T11:49:04.198Z,5.50
2018-10-16T11:50:04.284Z,5.80
2018-10-16T11:51:04.203Z,5.60
2018-10-16T11:52:04.269Z,5.70
2018-10-16T11:53:04.222Z,5.40
2018-10-16T11:54:04.222Z,5.90
2018-10-16T11:55:04.228Z,5.60
2018-10-16T11:56:04.307Z,5.50
2018-10-16T11:57:04.229Z,5.90
2018-10-16T11:58:04.233Z,6.20
2018-10-16T11:59:04.300Z,6.00
2018-10-16T12:00:04.242Z,5.90
2018-10-16T12:01:04.256Z,6.10
2018-10-16T12:02:04.345Z,5.40
2018-10-16T12:03:04.259Z,5.40
2018-10-16T12:04:04.262Z,5.30
2018-10-16T12:05:04.262Z,5.40
2018-10-16T12:06:04.281Z,5.40
2018-10-16T12:07:04.307Z,5.50
2018-10-16T12:08:04.302Z,5.50
2018-10-16T12:09:04.275Z,5.40
2018-10-16T12:10:04.280Z,6.20
2018-10-16T12:11:04.309Z,6.30
2018-10-16T12:12:04.285Z,5.70
2018-10-16T12:13:04.324Z,5.70
2018-10-16T12:14:04.397Z,5.40
2018-10-16T12:15:04.301Z,5.60
2018-10-16T12:16:04.304Z,5.60
2018-10-16T12:17:04.301Z,5.80
2018-10-16T12:18:04.306Z,5.50
2018-10-16T12:19:04.341Z,5.80
2018-10-16T12:20:04.457Z,5.60
2018-10-16T12:21:04.348Z,6.00
2018-10-16T12:22:04.323Z,5.50
2018-10-16T12:23:04.320Z,5.90
2018-10-16T12:24:04.388Z,5.40
2018-10-16T12:25:04.357Z,5.90
2018-10-16T12:26:04.334Z,5.20
2018-10-16T12:27:04.343Z,5.60
2018-10-16T12:28:04.340Z,5.20
2018-10-16T12:29:04.381Z,5.50
2018-10-16T12:30:04.345Z,6.00
2018-10-16T12:31:04.426Z,5.30
2018-10-16T12:32:04.402Z,5.30
2018-10-16T12:33:04.460Z,5.20
2018-10-16T12:34:04.358Z,5.00
2018-10-16T12:35:04.361Z,5.20
2018-10-16T12:36:04.363Z,5.20
2018-10-16T12:37:04.402Z,5.30
2018-10-16T12:38:04.364Z,5.20
2018-10-16T12:39:04.403Z,5.10
2018-10-16T12:40:04.433Z,4.90
2018-10-16T12:41:04.384Z,5.30
2018-10-16T12:42:04.397Z,5.40
2018-10-16T12:43:04.459Z,5.30
2018-10-16T12:44:04.381Z,5.90
2018-10-16T12:45:04.425Z,5.00
2018-10-16T12:46:04.452Z,5.00
2018-10-16T12:47:04.466Z,5.30
2018-10-16T12:48:04.412Z,5.30
2018-10-16T12:49:04.395Z,5.20
2018-10-16T12:50:04.434Z,5.30
2018-10-16T12:51:04.409Z,5.30
2018-10-16T12:52:04.402Z,5.30
2018-10-16T12:53:04.416Z,5.10
2018-10-16T12:54:04.483Z,5.10
2018-10-16T12:55:04.412Z,5.50
2018-10-16T12:56:04.471Z,5.10
2018-10-16T12:57:04.459Z,5.30
2018-10-16T12:58:04.421Z,5.60
2018-10-16T12:59:04.453Z,5.50
2018-10-16T13:00:04.441Z,4.70
2018-10-16T13:01:04.425Z,4.80
2018-10-16T13:02:04.449Z,5.60
2018-10-16T13:03:04.485Z,5.50
2018-10-16T13:04:04.431Z,5.40
2018-10-16T13:05:04.486Z,5.60
2018-10-16T13:06:04.441Z,5.40
2018-10-16T13:07:04.444Z,5.00
2018-10-16T13:08:04.508Z,5.30
2018-10-16T13:09:04.521Z,5.30
2018-10-16T13:10:04.446Z,5.40
2018-10-16T13:11:04.529Z,5.60
2018-10-16T13:12:04.456Z,5.40
2018-10-16T13:13:04.453Z,5.50
2018-10-16T13:14:04.481Z,5.20
2018-10-16T13:15:04.457Z,5.40
2018-10-16T13:16:04.541Z,5.30
2018-10-16T13:17:04.471Z,5.50
2018-10-16T13:18:04.472Z,5.30